Bryce, Utah
Current Conditions -  °F | °C
As of 2:53 PM on Tuesday 21 Oct 2014 (Local Time) from KBCE Reporting Station
Few Clouds Few Clouds  
Wind Chill: 59°   Ceiling: Unl
Heat Index: 59°   Visibility: 10mi
Dew Point: 36°   Wind: 6mph
Humidity: 42%   Direction: 230°SW
Pressure: 30.09"   Gusts: NA
Location:  37.67°N, 112.16°W
Report Text: KBCE 212053Z AUTO 23005KT 10SM FEW060 FEW080 15/02 A3009 RMK AO2 SLP109 T01500022 56018 TSNO
Loading
Personal Weather Stations






























Interactive Weather Map
Tropical Storm Tracking
New forecast layout! Learn more

10-Day Weather Forecast

Advertisements
Track Severe Weather on mobile